Time;durP1;ratioP1;P1;durP2;ratioP2;P2;SDS_P1;SDS_P2;PMS_P1;PMS_P2;Temp;Humidity;BMP_temperature;BMP_pressure;BME280_temperature;BME280_humidity;BME280_pressure;Samples;Min_cycle;Max_cycle;Signal;HPM_P1;HPM_P2
2021/12/07 00:01:48;;;;;;;31.53;16.30;;;;;;;6.68;100.00;99561.10;1617383;87;21145;-76
2021/12/07 00:04:15;;;;;;;29.67;17.20;;;;;;;6.70;100.00;99560.44;1617190;89;21100;-74
2021/12/07 00:06:43;;;;;;;31.63;18.33;;;;;;;6.72;100.00;99553.06;1617253;87;21099;-76
2021/12/07 00:09:13;;;;;;;30.40;18.13;;;;;;;6.73;100.00;99543.98;1617290;87;21063;-74
2021/12/07 00:11:39;;;;;;;31.30;17.67;;;;;;;6.74;100.00;99549.20;1617246;87;21189;-76
2021/12/07 00:14:12;;;;;;;30.60;17.53;;;;;;;6.75;100.00;99552.75;1617232;89;21497;-75
2021/12/07 00:16:35;;;;;;;32.57;18.90;;;;;;;6.75;100.00;99554.92;1614302;89;21091;-74
2021/12/07 00:19:02;;;;;;;31.23;17.87;;;;;;;6.75;100.00;99560.30;1617597;87;21134;-75
2021/12/07 00:21:29;;;;;;;29.83;17.07;;;;;;;6.77;100.00;99566.36;1639694;86;21078;-74
2021/12/07 00:23:55;;;;;;;32.03;18.53;;;;;;;6.77;100.00;99562.33;1665683;86;21082;-74
2021/12/07 00:26:22;;;;;;;31.33;17.70;;;;;;;6.79;100.00;99563.52;1665891;86;21043;-76
2021/12/07 00:28:50;;;;;;;30.67;18.10;;;;;;;6.79;100.00;99554.94;1665461;85;21416;-75
2021/12/07 00:31:27;;;;;;;33.23;18.50;;;;;;;6.78;100.00;99545.22;1665662;86;21074;-74
2021/12/07 00:34:05;;;;;;;34.55;19.57;;;;;;;6.79;100.00;99544.70;1660766;86;21062;-75
2021/12/07 00:36:19;;;;;;;30.57;18.30;;;;;;;6.80;100.00;99539.17;1662887;85;21026;-75
2021/12/07 00:38:46;;;;;;;28.10;16.50;;;;;;;6.82;100.00;99534.98;1686843;85;21043;-74
2021/12/07 00:41:12;;;;;;;29.03;16.40;;;;;;;6.83;100.00;99530.80;1686838;85;21493;-74
2021/12/07 00:43:39;;;;;;;30.73;17.07;;;;;;;6.85;100.00;99523.89;1698215;83;21058;-75
2021/12/07 00:46:08;;;;;;;29.60;17.07;;;;;;;6.86;100.00;99532.83;1694667;83;21546;-75
2021/12/07 00:48:36;;;;;;;29.97;17.47;;;;;;;6.86;100.00;99526.11;1689320;84;21067;-75
2021/12/07 00:51:03;;;;;;;29.07;16.57;;;;;;;6.88;100.00;99522.24;1689573;84;21044;-73
2021/12/07 00:53:30;;;;;;;29.50;16.60;;;;;;;6.91;100.00;99517.06;1689562;84;21052;-75
2021/12/07 00:55:59;;;;;;;27.67;15.83;;;;;;;6.92;100.00;99516.05;1689416;85;21019;-75
2021/12/07 00:58:27;;;;;;;28.93;16.17;;;;;;;6.94;100.00;99512.69;1689241;84;21044;-73
2021/12/07 01:00:59;;;;;;;27.53;15.83;;;;;;;6.95;100.00;99509.02;1689380;85;21043;-73
2021/12/07 01:03:27;;;;;;;28.07;15.73;;;;;;;6.97;100.00;99505.66;1689598;85;21032;-75
2021/12/07 01:06:05;;;;;;;26.20;14.80;;;;;;;6.98;100.00;99493.41;1689341;85;21067;-74
2021/12/07 01:24:56;;;;;;;27.93;15.53;;;;;;;7.11;100.00;99478.16;1689617;85;21553;-75
2021/12/07 01:27:23;;;;;;;27.90;14.70;;;;;;;7.11;100.00;99477.33;1689632;85;20989;-75
2021/12/07 01:30:04;;;;;;;27.00;13.93;;;;;;;7.12;100.00;99470.92;1689461;85;21025;-73
2021/12/07 01:53:10;;;;;;;25.57;13.20;;;;;;;7.16;100.00;99431.97;1573761;91;21084;-74
2021/12/07 02:00:53;;;;;;;28.30;14.97;;;;;;;7.18;100.00;99438.86;1573577;91;21072;-74
2021/12/07 02:03:20;;;;;;;23.33;13.13;;;;;;;7.18;100.00;99441.55;1573785;91;21104;-74
2021/12/07 02:05:47;;;;;;;25.13;13.43;;;;;;;7.18;100.00;99441.55;1573776;91;21049;-75
2021/12/07 02:08:14;;;;;;;25.37;13.20;;;;;;;7.19;100.00;99449.97;1573466;91;21136;-75
2021/12/07 02:10:42;;;;;;;25.63;13.97;;;;;;;7.20;100.00;99444.91;1573785;91;21132;-75
2021/12/07 02:13:23;;;;;;;24.40;12.87;;;;;;;7.21;100.00;99445.77;1573740;91;21048;-76
2021/12/07 02:15:48;;;;;;;25.47;13.03;;;;;;;7.23;100.00;99449.13;1573778;91;21072;-75
2021/12/07 02:18:15;;;;;;;25.37;13.13;;;;;;;7.22;100.00;99436.20;1573997;90;21100;-74
2021/12/07 02:20:47;;;;;;;25.43;13.57;;;;;;;7.25;100.00;99439.05;1573851;91;21533;-74
2021/12/07 02:23:14;;;;;;;24.13;12.97;;;;;;;7.26;100.00;99437.19;1573825;91;21124;-74
2021/12/07 02:25:41;;;;;;;25.57;14.27;;;;;;;7.26;100.00;99431.34;1573582;91;21160;-73
2021/12/07 02:28:13;;;;;;;24.03;13.37;;;;;;;7.28;100.00;99423.08;1573576;91;21088;-74
2021/12/07 02:30:37;;;;;;;26.20;13.70;;;;;;;7.29;100.00;99422.08;1570570;91;21037;-75
2021/12/07 02:33:03;;;;;;;25.80;12.70;;;;;;;7.31;100.00;99426.30;1572700;91;21073;-74
2021/12/07 02:35:31;;;;;;;27.87;14.73;;;;;;;7.33;100.00;99418.05;1569103;91;21110;-74
2021/12/07 02:37:59;;;;;;;27.80;15.10;;;;;;;7.35;100.00;99419.58;1569348;91;21045;-74
2021/12/07 02:40:27;;;;;;;26.83;14.00;;;;;;;7.37;100.00;99427.48;1636153;85;20973;-74
2021/12/07 02:42:53;;;;;;;27.77;16.47;;;;;;;7.38;100.00;99423.77;1693471;84;21063;-74
2021/12/07 02:45:22;;;;;;;25.53;15.17;;;;;;;7.40;100.00;99429.83;1710774;83;21011;-75
2021/12/07 02:47:49;;;;;;;27.37;15.47;;;;;;;7.43;100.00;99424.63;1689672;84;21064;-74
2021/12/07 02:50:16;;;;;;;24.43;14.27;;;;;;;7.44;100.00;99428.98;1689697;85;21145;-75
2021/12/07 02:52:43;;;;;;;26.97;14.03;;;;;;;7.44;100.00;99433.89;1689620;84;21025;-73
2021/12/07 02:55:10;;;;;;;23.90;13.60;;;;;;;7.45;100.00;99435.55;1689543;85;21044;-74
2021/12/07 02:57:37;;;;;;;24.83;14.00;;;;;;;7.48;100.00;99443.30;1689623;85;20991;-74
2021/12/07 03:00:13;;;;;;;27.00;15.27;;;;;;;7.48;100.00;99441.95;1689415;85;21048;-72
2021/12/07 03:02:44;;;;;;;27.58;14.28;;;;;;;7.50;100.00;99443.14;1690070;84;21028;-73
2021/12/07 03:05:19;;;;;;;23.13;12.60;;;;;;;7.50;100.00;99443.97;1689711;85;21094;-73
2021/12/07 03:25:53;;;;;;;24.27;13.33;;;;;;;7.53;100.00;99433.39;1688803;84;21059;-74
2021/12/07 03:26:26;;;;;;;22.40;12.67;;;;;;;7.58;100.00;99410.88;1689959;85;21533;-73
2021/12/07 03:28:54;;;;;;;23.53;13.47;;;;;;;7.58;100.00;99418.94;1689876;85;21076;-73
2021/12/07 03:31:26;;;;;;;22.87;13.23;;;;;;;7.58;100.00;99418.43;1689911;85;21040;-73
2021/12/07 03:33:53;;;;;;;22.90;13.83;;;;;;;7.62;100.00;99420.80;1690032;85;21016;-71
2021/12/07 03:36:20;;;;;;;22.60;12.83;;;;;;;7.63;100.00;99421.11;1693609;85;21064;-74
2021/12/07 03:38:48;;;;;;;25.93;13.27;;;;;;;7.64;100.00;99421.47;1689756;85;21072;-71
2021/12/07 03:41:16;;;;;;;23.53;13.07;;;;;;;7.64;100.00;99429.53;1689717;84;21064;-75
2021/12/07 03:43:45;;;;;;;23.27;13.97;;;;;;;7.63;100.00;99434.05;1663619;85;20998;-73
2021/12/07 03:46:13;;;;;;;20.70;11.93;;;;;;;7.64;100.00;99417.42;1662845;85;21021;-73
2021/12/07 03:48:42;;;;;;;23.37;13.27;;;;;;;7.65;100.00;99413.71;1675653;85;21061;-73
2021/12/07 03:51:09;;;;;;;25.40;13.57;;;;;;;7.66;100.00;99403.30;1675795;86;21035;-72
2021/12/07 03:53:36;;;;;;;23.37;12.77;;;;;;;7.66;100.00;99414.89;1675900;86;21041;-73
2021/12/07 03:56:05;;;;;;;26.07;15.37;;;;;;;7.66;100.00;99428.86;1675993;86;21085;-74
2021/12/07 03:58:34;;;;;;;23.60;14.17;;;;;;;7.66;100.00;99411.38;1676075;86;21060;-74
2021/12/07 04:01:01;;;;;;;27.17;16.70;;;;;;;7.66;100.00;99418.93;1676068;85;21076;-74
2021/12/07 04:03:33;;;;;;;22.67;13.63;;;;;;;7.66;100.00;99434.24;1676270;85;21025;-74
2021/12/07 04:05:59;;;;;;;23.10;13.87;;;;;;;7.65;100.00;99467.05;1672986;86;21057;-74
2021/12/07 04:08:26;;;;;;;23.40;13.93;;;;;;;7.65;100.00;99464.36;1676207;85;21587;-74
2021/12/07 04:10:54;;;;;;;20.87;13.13;;;;;;;7.66;100.00;99443.15;1676076;86;21080;-74
2021/12/07 04:13:25;;;;;;;25.47;14.53;;;;;;;7.67;100.00;99435.94;1676252;84;21052;-74
2021/12/07 04:15:52;;;;;;;22.53;13.93;;;;;;;7.67;100.00;99421.14;1676362;86;21036;-74
2021/12/07 04:18:19;;;;;;;22.70;14.50;;;;;;;7.66;100.00;99416.23;1676491;86;21009;-74
2021/12/07 04:20:46;;;;;;;22.70;13.30;;;;;;;7.66;100.00;99409.52;1676156;84;21060;-75
2021/12/07 04:23:13;;;;;;;20.23;12.47;;;;;;;7.66;100.00;99401.95;1676532;86;21017;-73
2021/12/07 04:25:39;;;;;;;19.73;12.27;;;;;;;7.66;100.00;99400.61;1676738;86;21029;-73
2021/12/07 04:28:06;;;;;;;21.40;12.87;;;;;;;7.66;100.00;99401.44;1676830;84;21009;-74
2021/12/07 04:30:39;;;;;;;23.07;14.40;;;;;;;7.67;100.00;99411.20;1676608;86;21526;-74
2021/12/07 04:33:09;;;;;;;24.17;14.53;;;;;;;7.67;100.00;99404.48;1676495;86;21076;-74
2021/12/07 04:35:37;;;;;;;24.43;16.00;;;;;;;7.67;100.00;99418.45;1676106;86;21052;-74
2021/12/07 04:38:04;;;;;;;23.67;14.40;;;;;;;7.68;100.00;99429.53;1675716;86;20995;-74
2021/12/07 04:40:32;;;;;;;23.17;13.77;;;;;;;7.68;100.00;99417.42;1675620;86;21086;-74
2021/12/07 04:42:59;;;;;;;23.30;13.93;;;;;;;7.69;100.00;99422.64;1692677;84;21485;-73
2021/12/07 04:59:07;;;;;;;22.43;14.07;;;;;;;7.66;100.00;99410.02;1712210;84;20976;-74
2021/12/07 05:01:34;;;;;;;23.00;14.07;;;;;;;7.66;100.00;99414.89;1711855;84;21059;-73
2021/12/07 05:04:07;;;;;;;21.03;13.47;;;;;;;7.66;100.00;99418.09;1712145;84;21545;-74
2021/12/07 05:06:32;;;;;;;23.10;14.27;;;;;;;7.65;100.00;99430.72;1711033;83;21074;-73
2021/12/07 05:09:07;;;;;;;23.57;15.20;;;;;;;7.65;100.00;99441.96;1712041;83;21103;-74
2021/12/07 05:23:52;;;;;;;25.33;16.13;;;;;;;7.66;100.00;99432.38;1649262;87;21162;-75
2021/12/07 05:24:22;;;;;;;27.37;17.10;;;;;;;7.69;100.00;99441.98;1649358;87;21575;-73
2021/12/07 05:40:34;;;;;;;27.03;17.13;;;;;;;7.70;100.00;99447.69;1613491;89;21069;-75
2021/12/07 05:43:02;;;;;;;28.73;17.50;;;;;;;7.70;100.00;99458.45;1631011;87;21105;-76
2021/12/07 05:45:33;;;;;;;26.47;16.83;;;;;;;7.70;100.00;99457.97;1649651;87;21044;-75
2021/12/07 05:48:00;;;;;;;28.47;17.93;;;;;;;7.71;100.00;99460.15;1589352;88;21579;-77
2021/12/07 05:50:30;;;;;;;28.00;18.70;;;;;;;7.71;100.00;99454.25;1580494;89;21078;-75
2021/12/07 05:52:57;;;;;;;29.57;19.23;;;;;;;7.71;100.00;99455.60;1577871;91;21121;-76
2021/12/07 05:55:23;;;;;;;28.13;19.00;;;;;;;7.72;100.00;99449.70;1590957;88;21004;-75
2021/12/07 05:57:50;;;;;;;30.03;18.77;;;;;;;7.72;100.00;99446.53;1628754;88;21059;-73
2021/12/07 06:00:25;;;;;;;29.43;18.60;;;;;;;7.72;100.00;99447.02;1628599;88;21486;-74
2021/12/07 06:02:53;;;;;;;28.60;18.20;;;;;;;7.73;100.00;99433.39;1625724;88;21031;-73
2021/12/07 06:05:20;;;;;;;26.63;17.93;;;;;;;7.74;100.00;99439.13;1575666;90;21090;-74
2021/12/07 06:07:48;;;;;;;26.53;17.80;;;;;;;7.75;100.00;99441.30;1557151;91;21081;-75
2021/12/07 06:10:15;;;;;;;27.50;17.83;;;;;;;7.75;100.00;99425.16;1549910;91;21108;-76
2021/12/07 06:12:43;;;;;;;32.57;19.70;;;;;;;7.75;100.00;99414.39;1550038;93;21534;-76
2021/12/07 06:15:11;;;;;;;31.33;20.23;;;;;;;7.78;100.00;99414.06;1549809;93;21927;-74
2021/12/07 06:17:38;;;;;;;27.90;18.20;;;;;;;7.79;100.00;99421.97;1532471;93;21587;-72
2021/12/07 06:20:06;;;;;;;28.00;18.70;;;;;;;7.82;100.00;99419.44;1519223;94;21158;-73
2021/12/07 06:22:33;;;;;;;30.53;19.07;;;;;;;7.84;100.00;99415.23;1525678;94;21247;-73
2021/12/07 06:25:00;;;;;;;29.10;19.10;;;;;;;7.84;100.00;99416.06;1526137;94;21193;-74
2021/12/07 06:27:27;;;;;;;29.30;18.43;;;;;;;7.84;100.00;99414.72;1526408;94;21542;-74
2021/12/07 06:29:57;;;;;;;32.13;19.03;;;;;;;7.85;100.00;99413.73;1526220;94;21111;-75
2021/12/07 06:32:25;;;;;;;29.63;19.13;;;;;;;7.87;100.00;99407.66;1526220;94;21048;-74
2021/12/07 06:34:51;;;;;;;30.30;19.80;;;;;;;7.88;100.00;99399.07;1526198;94;21169;-76
2021/12/07 06:37:18;;;;;;;33.87;22.07;;;;;;;7.88;100.00;99406.66;1510556;94;21058;-74
2021/12/07 06:39:50;;;;;;;31.03;19.87;;;;;;;7.89;100.00;99409.67;1499379;96;21064;-73
2021/12/07 06:42:18;;;;;;;31.37;19.87;;;;;;;7.88;100.00;99400.42;1466673;97;21159;-72
2021/12/07 06:44:44;;;;;;;32.60;20.33;;;;;;;7.88;100.00;99396.38;1484324;96;21134;-72
2021/12/07 06:47:11;;;;;;;31.93;20.47;;;;;;;7.90;100.00;99387.14;1497250;95;21585;-72
2021/12/07 06:49:38;;;;;;;34.77;22.10;;;;;;;7.93;100.00;99382.77;1493973;96;21741;-73
2021/12/07 06:52:07;;;;;;;33.43;20.33;;;;;;;7.94;100.00;99390.34;1535204;93;21530;-73
2021/12/07 06:54:35;;;;;;;32.27;21.60;;;;;;;7.95;100.00;99394.69;1533784;93;21192;-75
2021/12/07 06:57:13;;;;;;;33.03;21.07;;;;;;;7.94;100.00;99401.10;1534642;93;21048;-77
2021/12/07 06:59:40;;;;;;;32.70;19.87;;;;;;;7.95;100.00;99404.98;1510711;95;21177;-76
2021/12/07 07:02:07;;;;;;;37.23;24.33;;;;;;;7.95;100.00;99391.52;1532403;92;21127;-74
2021/12/07 07:04:34;;;;;;;31.00;20.97;;;;;;;7.97;100.00;99393.53;1570424;91;21059;-73
2021/12/07 07:07:01;;;;;;;31.67;19.83;;;;;;;7.98;100.00;99395.70;1556293;92;21066;-75
2021/12/07 07:09:29;;;;;;;33.93;19.37;;;;;;;7.99;100.00;99386.63;1559619;92;21186;-75
2021/12/07 07:11:56;;;;;;;29.30;19.30;;;;;;;8.01;100.00;99380.56;1560051;92;21127;-73
2021/12/07 07:14:23;;;;;;;31.23;19.63;;;;;;;8.03;100.00;99382.58;1560396;92;21066;-77
2021/12/07 07:16:50;;;;;;;32.40;19.27;;;;;;;8.03;100.00;99382.58;1560681;92;21090;-75
2021/12/07 07:19:17;;;;;;;30.10;19.13;;;;;;;8.04;100.00;99381.58;1561073;92;21116;-76
2021/12/07 07:21:44;;;;;;;31.77;20.17;;;;;;;8.04;100.00;99385.62;1560828;92;21072;-77
2021/12/07 07:24:13;;;;;;;32.30;19.23;;;;;;;8.05;100.00;99388.63;1560644;92;21083;-75
2021/12/07 07:26:43;;;;;;;30.63;18.07;;;;;;;8.07;100.00;99383.08;1552893;92;21060;-75
2021/12/07 07:29:15;;;;;;;29.67;19.10;;;;;;;8.07;100.00;99387.95;1579908;89;21082;-75
2021/12/07 07:31:43;;;;;;;31.73;20.70;;;;;;;8.06;100.00;99380.89;1608959;89;21135;-76
2021/12/07 07:34:10;;;;;;;33.73;21.90;;;;;;;8.04;100.00;99386.09;1609229;89;21082;-75
2021/12/07 07:36:37;;;;;;;36.50;23.03;;;;;;;8.03;100.00;99390.66;1602141;89;21102;-72
2021/12/07 07:39:06;;;;;;;34.93;22.80;;;;;;;8.03;100.00;99392.00;1578475;91;21571;-78
2021/12/07 07:41:33;;;;;;;31.43;20.23;;;;;;;8.02;100.00;99394.38;1558898;91;21111;-78
2021/12/07 07:43:59;;;;;;;33.57;20.80;;;;;;;8.01;100.00;99394.03;1579677;89;21083;-75
2021/12/07 07:46:27;;;;;;;33.53;18.43;;;;;;;8.02;100.00;99386.30;1579589;90;21527;-72
2021/12/07 07:48:54;;;;;;;31.80;18.77;;;;;;;8.03;100.00;99384.44;1566760;91;21089;-75
2021/12/07 07:51:20;;;;;;;33.20;19.60;;;;;;;8.04;100.00;99392.83;1567203;91;21099;-75
2021/12/07 07:53:48;;;;;;;30.60;17.73;;;;;;;8.04;100.00;99399.56;1566923;91;21506;-75
2021/12/07 07:56:15;;;;;;;31.77;18.57;;;;;;;8.02;100.00;99400.24;1591043;89;21088;-75
2021/12/07 07:58:42;;;;;;;31.00;16.97;;;;;;;7.97;100.00;99402.95;1616711;88;21045;-76
2021/12/07 08:01:08;;;;;;;35.47;17.27;;;;;;;7.97;100.00;99403.47;1616707;88;21093;-78
2021/12/07 08:03:35;;;;;;;31.53;16.63;;;;;;;7.96;100.00;99407.98;1616313;88;21041;-78
2021/12/07 08:06:03;;;;;;;35.60;18.83;;;;;;;7.95;100.00;99399.59;1624380;86;21201;-78
2021/12/07 08:08:30;;;;;;;38.13;19.33;;;;;;;7.96;100.00;99385.62;1611510;87;21078;-77
2021/12/07 08:10:57;;;;;;;31.70;16.93;;;;;;;7.94;100.00;99382.26;1621160;86;21047;-76
2021/12/07 08:13:25;;;;;;;31.23;17.30;;;;;;;7.93;100.00;99376.53;1623388;86;21026;-76
2021/12/07 08:15:52;;;;;;;30.63;16.67;;;;;;;7.94;100.00;99368.80;1620065;86;21225;-75
2021/12/07 08:18:20;;;;;;;36.00;18.23;;;;;;;7.94;100.00;99374.19;1626168;86;21089;-77
2021/12/07 08:20:47;;;;;;;32.07;16.97;;;;;;;7.96;100.00;99374.84;1620121;88;21621;-73
2021/12/07 08:23:14;;;;;;;36.07;19.40;;;;;;;7.96;100.00;99370.81;1637962;83;21015;-75
2021/12/07 08:25:44;;;;;;;31.83;17.63;;;;;;;7.98;100.00;99375.03;1687912;83;21017;-79
2021/12/07 08:28:13;;;;;;;32.33;17.10;;;;;;;8.00;100.00;99360.02;1657829;85;21020;-78
2021/12/07 08:30:42;;;;;;;31.10;16.13;;;;;;;8.01;100.00;99346.08;1663399;85;21052;-77
2021/12/07 08:33:09;;;;;;;34.30;18.00;;;;;;;8.01;100.00;99357.68;1620291;87;21594;-76
2021/12/07 08:35:38;;;;;;;38.80;20.57;;;;;;;8.01;100.00;99352.30;1627632;87;21644;-78
2021/12/07 08:38:05;;;;;;;32.57;18.23;;;;;;;8.02;100.00;99355.82;1633626;87;21023;-72
2021/12/07 08:40:33;;;;;;;30.47;17.47;;;;;;;8.03;100.00;99350.27;1633038;88;21071;-71
2021/12/07 08:43:00;;;;;;;35.87;18.80;;;;;;;8.04;100.00;99343.88;1636140;86;20973;-72
2021/12/07 08:45:28;;;;;;;29.27;16.50;;;;;;;8.07;100.00;99338.13;1633038;86;21089;-72
2021/12/07 08:47:54;;;;;;;33.27;18.60;;;;;;;8.07;100.00;99327.88;1631812;87;21101;-71
2021/12/07 08:50:24;;;;;;;30.83;16.80;;;;;;;8.04;100.00;99325.03;1647647;87;21072;-72
2021/12/07 08:52:52;;;;;;;27.00;16.10;;;;;;;8.05;100.00;99319.14;1624823;87;21027;-72
2021/12/07 09:00:52;;;;;;;42.10;20.23;;;;;;;8.05;100.00;99310.55;1632004;86;21152;-70
2021/12/07 09:03:20;;;;;;;39.00;18.90;;;;;;;8.08;100.00;99299.95;1631394;88;21068;-73
2021/12/07 09:05:47;;;;;;;28.83;18.07;;;;;;;8.11;100.00;99303.14;1634766;87;21037;-71
2021/12/07 09:08:15;;;;;;;33.73;19.03;;;;;;;8.13;100.00;99308.35;1650239;87;21563;-72
2021/12/07 09:10:42;;;;;;;33.07;21.27;;;;;;;8.16;100.00;99306.64;1630643;87;21057;-70
2021/12/07 09:13:09;;;;;;;67.73;37.17;;;;;;;8.18;100.00;99308.67;1630287;87;21567;-71
2021/12/07 09:15:38;;;;;;;40.90;21.70;;;;;;;8.21;100.00;99304.78;1633854;87;21115;-72
2021/12/07 09:18:05;;;;;;;35.70;20.13;;;;;;;8.24;100.00;99298.54;1633915;87;21020;-73
2021/12/07 09:20:32;;;;;;;32.83;18.53;;;;;;;8.26;100.00;99300.55;1634108;87;21007;-72
2021/12/07 09:22:59;;;;;;;35.00;20.70;;;;;;;8.28;100.00;99297.69;1631295;88;21030;-73
2021/12/07 09:25:26;;;;;;;48.90;25.43;;;;;;;8.30;100.00;99283.02;1632560;87;21078;-72
2021/12/07 09:27:53;;;;;;;43.63;29.33;;;;;;;8.33;100.00;99277.28;1636680;87;21165;-76
2021/12/07 09:30:20;;;;;;;36.60;23.43;;;;;;;8.39;100.00;99276.25;1673967;85;21087;-74
2021/12/07 09:32:48;;;;;;;43.87;24.87;;;;;;;8.41;100.00;99263.44;1687016;85;21684;-71
2021/12/07 09:35:15;;;;;;;47.03;24.30;;;;;;;8.43;100.00;99252.88;1694684;83;20984;-74
2021/12/07 09:37:44;;;;;;;46.27;24.37;;;;;;;8.46;100.00;99248.97;1694135;84;21014;-72
2021/12/07 09:40:15;;;;;;;49.27;26.83;;;;;;;8.49;100.00;99252.67;1693626;84;21017;-73
2021/12/07 09:42:42;;;;;;;48.07;24.30;;;;;;;8.50;100.00;99246.27;1698727;83;21036;-72
2021/12/07 09:45:10;;;;;;;52.00;25.67;;;;;;;8.54;100.00;99238.16;1680801;84;21542;-73
2021/12/07 09:47:37;;;;;;;52.73;28.30;;;;;;;8.59;100.00;99232.22;1674250;83;21028;-73
2021/12/07 09:50:05;;;;;;;49.23;27.30;;;;;;;8.62;100.00;99227.31;1682441;84;21021;-70
2021/12/07 09:52:33;;;;;;;37.37;22.90;;;;;;;8.67;100.00;99224.92;1680839;83;21134;-73
2021/12/07 09:58:34;;;;;;;33.90;19.17;;;;;;;8.81;100.00;99219.27;1731639;80;21223;-78
2021/12/07 10:01:01;;;;;;;31.40;19.87;;;;;;;8.89;100.00;99207.61;1740156;81;20970;-73
2021/12/07 10:03:28;;;;;;;29.43;16.27;;;;;;;8.97;100.00;99204.83;1746445;80;21015;-75
2021/12/07 10:05:55;;;;;;;28.27;16.00;;;;;;;9.00;100.00;99193.69;1743389;81;21026;-74
2021/12/07 10:08:22;;;;;;;29.00;16.77;;;;;;;9.01;100.00;99193.16;1758194;81;21080;-74
2021/12/07 10:10:56;;;;;;;27.60;16.37;;;;;;;9.01;100.00;99196.72;1746083;79;72053;-74
2021/12/07 10:13:29;;;;;;;;;;;;;;;9.01;100.00;99185.94;1736945;81;21006;-77
2021/12/07 10:15:58;;;;;;;26.62;15.95;;;;;;;9.00;100.00;99184.25;1755139;81;20174;-76
2021/12/07 10:18:28;;;;;;;29.40;17.87;;;;;;;8.99;100.00;99185.25;1742183;81;21545;-75
2021/12/07 10:21:01;;;;;;;29.13;17.00;;;;;;;8.98;100.00;99182.25;1662281;84;21049;-74
2021/12/07 10:23:37;;;;;;;;;;;;;;;8.98;100.00;99182.73;1678774;84;21089;-77
2021/12/07 10:26:16;;;;;;;38.07;22.43;;;;;;;8.98;100.00;99177.34;1668953;84;20132;-82
2021/12/07 10:28:50;;;;;;;50.87;27.37;;;;;;;8.98;100.00;99180.90;1670120;86;21007;-76
2021/12/07 10:31:28;;;;;;;49.47;28.20;;;;;;;9.00;100.00;99172.63;1664294;86;21009;-76
2021/12/07 10:34:01;;;;;;;34.87;21.60;;;;;;;9.01;100.00;99172.95;1646991;87;21173;-77
2021/12/07 10:36:41;;;;;;;34.73;19.90;;;;;;;9.03;100.00;99171.76;1633632;87;21034;-78
2021/12/07 10:39:24;;;;;;;28.73;17.47;;;;;;;9.06;100.00;99168.67;1642391;87;21043;-77
2021/12/07 10:41:58;;;;;;;26.73;16.83;;;;;;;9.09;100.00;99164.27;1618723;87;21039;-75
2021/12/07 10:44:28;;;;;;;27.47;15.90;;;;;;;9.15;100.00;99156.47;1571664;91;21540;-73
2021/12/07 10:47:05;;;;;;;27.67;16.33;;;;;;;9.19;100.00;99159.12;1559413;91;21035;-73
2021/12/07 10:49:37;;;;;;;27.37;16.90;;;;;;;9.23;100.00;99156.41;1462725;97;21549;-72
2021/12/07 10:52:15;;;;;;;25.23;14.43;;;;;;;9.27;100.00;99159.88;1504070;95;21170;-74
2021/12/07 10:54:53;;;;;;;25.13;14.83;;;;;;;9.34;100.00;99151.06;1501738;95;21175;-74
2021/12/07 10:57:27;;;;;;;23.70;13.80;;;;;;;9.41;100.00;99143.90;1500536;95;22146;-74
2021/12/07 11:00:07;;;;;;;26.03;14.53;;;;;;;9.47;100.00;99148.54;1501922;95;21068;-74
2021/12/07 11:02:36;;;;;;;30.83;17.70;;;;;;;9.54;100.00;99142.72;1488683;95;21205;-75
2021/12/07 11:05:08;;;;;;;31.93;18.73;;;;;;;9.62;100.00;99131.84;1508358;94;21145;-74
2021/12/07 11:07:36;;;;;;;25.72;15.20;;;;;;;9.70;100.00;99124.14;1507639;94;21481;-69
2021/12/07 11:10:16;;;;;;;24.57;14.07;;;;;;;9.80;100.00;99115.25;1510856;94;21070;-71
2021/12/07 11:13:10;;;;;;;31.37;17.75;;;;;;;9.92;100.00;99109.38;1558807;91;21140;-72
2021/12/07 11:15:32;;;;;;;30.00;17.73;;;;;;;10.01;100.00;99111.77;1508060;93;21090;-72
2021/12/07 11:18:08;;;;;;;33.23;20.80;;;;;;;10.14;100.00;99101.62;1545537;92;21116;-71
2021/12/07 11:20:35;;;;;;;26.67;16.10;;;;;;;10.26;100.00;99093.85;1527619;92;21049;-69
2021/12/07 11:23:18;;;;;;;25.10;13.20;;;;;;;10.37;100.00;99083.08;1535456;92;21080;-71
2021/12/07 11:31:34;;;;;;;20.35;11.45;;;;;;;10.59;100.00;99033.91;1502715;94;21044;-73
2021/12/07 11:34:27;;;;;;;27.98;14.18;;;;;;;10.59;100.00;99018.52;1470259;97;21039;-72
2021/12/07 11:37:07;;;;;;;28.75;15.68;;;;;;;10.58;100.00;99015.48;1482675;93;21575;-74
2021/12/07 11:39:47;;;;;;;23.35;12.95;;;;;;;10.55;100.00;99002.38;1469095;96;21041;-72
2021/12/07 11:42:15;;;;;;;25.27;13.68;;;;;;;10.52;100.00;98995.19;1402540;101;21115;-76
2021/12/07 11:45:02;;;;;;;30.08;15.83;;;;;;;10.48;100.00;98994.70;1402642;100;21521;-69
2021/12/07 11:47:41;;;;;;;23.25;11.97;;;;;;;10.46;100.00;99003.53;1430106;99;21196;-74
2021/12/07 11:50:25;;;;;;;21.87;11.78;;;;;;;10.46;100.00;98995.42;1444390;99;21115;-72
2021/12/07 11:52:59;;;;;;;21.55;11.90;;;;;;;10.45;100.00;98995.13;1439575;97;21633;-73
2021/12/07 11:55:27;;;;;;;23.27;11.90;;;;;;;10.44;100.00;98988.03;1438634;99;21052;-68
2021/12/07 11:57:54;;;;;;;17.87;9.73;;;;;;;10.43;100.00;98975.05;1441626;99;21105;-72
2021/12/07 12:00:34;;;;;;;20.60;9.90;;;;;;;10.41;100.00;98971.71;1427346;98;21104;-73
2021/12/07 12:02:57;;;;;;;19.02;9.38;;;;;;;10.40;100.00;98970.03;1427001;98;21100;-75
2021/12/07 12:05:24;;;;;;;19.02;10.13;;;;;;;10.41;100.00;98974.91;1428971;98;21073;-75
2021/12/07 12:07:51;;;;;;;18.05;10.10;;;;;;;10.40;100.00;98976.78;1447157;95;21645;-74
2021/12/07 12:10:18;;;;;;;19.95;10.50;;;;;;;10.39;100.00;98986.43;1491210;95;21560;-73
2021/12/07 12:13:07;;;;;;;20.55;11.30;;;;;;;10.39;100.00;98987.29;1486186;95;21195;-74
2021/12/07 12:16:03;;;;;;;18.27;9.67;;;;;;;10.38;100.00;98988.31;1480059;95;21657;-76
2021/12/07 12:18:55;;;;;;;19.65;10.05;;;;;;;10.38;100.00;98993.71;1499564;95;21148;-73
2021/12/07 12:21:50;;;;;;;19.65;10.75;;;;;;;10.39;100.00;99000.80;1480309;95;21052;-73
2021/12/07 12:24:38;;;;;;;27.98;15.60;;;;;;;10.38;100.00;99001.82;1482705;95;21080;-72
2021/12/07 12:27:12;;;;;;;25.60;14.13;;;;;;;10.37;100.00;99006.89;1447690;99;21051;-73
2021/12/07 12:29:42;;;;;;;30.02;15.32;;;;;;;10.36;100.00;99011.99;1436471;99;21157;-73
2021/12/07 12:32:10;;;;;;;35.38;18.15;;;;;;;10.37;100.00;99015.00;1443986;97;21082;-74
2021/12/07 12:34:50;;;;;;;29.48;15.05;;;;;;;10.38;100.00;99017.20;1442827;98;21091;-74
2021/12/07 12:37:22;;;;;;;27.20;13.35;;;;;;;10.36;100.00;99018.75;1461029;95;21149;-74
2021/12/07 12:40:11;;;;;;;31.55;15.80;;;;;;;10.36;100.00;99020.09;1569463;89;21057;-74
2021/12/07 12:42:50;;;;;;;29.57;13.62;;;;;;;10.37;100.00;99026.33;1581064;91;21538;-72
2021/12/07 12:45:30;;;;;;;31.20;14.25;;;;;;;10.35;100.00;99031.92;1580973;91;21025;-72
2021/12/07 12:48:08;;;;;;;61.85;27.25;;;;;;;10.35;100.00;99031.09;1580467;91;21567;-73
2021/12/07 12:50:46;;;;;;;46.55;22.05;;;;;;;10.33;100.00;99023.70;1597047;88;21092;-72
2021/12/07 12:53:32;;;;;;;41.25;19.25;;;;;;;10.31;100.00;99023.89;1594319;88;21112;-74
2021/12/07 12:56:08;;;;;;;59.38;26.70;;;;;;;10.29;100.00;99026.42;1593760;88;21033;-70
2021/12/07 12:58:43;;;;;;;39.27;17.70;;;;;;;10.23;100.00;99026.20;1600929;87;21016;-71
2021/12/07 13:01:33;;;;;;;43.17;22.58;;;;;;;10.20;100.00;99031.98;1593975;89;21563;-71
2021/12/07 13:04:22;;;;;;;24.40;12.65;;;;;;;10.18;100.00;99039.94;1593634;90;21085;-70
2021/12/07 13:07:02;;;;;;;20.10;9.97;;;;;;;10.13;100.00;99036.48;1593557;90;21060;-72
2021/12/07 13:09:27;;;;;;;18.23;9.30;;;;;;;10.11;100.00;99043.95;1592960;89;21577;-71
2021/12/07 13:12:11;;;;;;;20.23;10.30;;;;;;;10.09;100.00;99043.28;1595602;89;21096;-71
2021/12/07 13:14:58;;;;;;;23.98;10.85;;;;;;;10.07;100.00;99051.59;1591773;90;21061;-72
2021/12/07 13:17:31;;;;;;;29.30;13.37;;;;;;;10.04;100.00;99052.50;1552467;89;21554;-71
2021/12/07 13:20:18;;;;;;;26.87;12.80;;;;;;;10.00;100.00;99052.02;1534353;93;21205;-71
2021/12/07 13:22:58;;;;;;;27.87;14.13;;;;;;;9.95;100.00;99053.12;1515981;93;21182;-72